Terminal Aerodrome Forecast
Issued by NWS

Home | Current Version | Previous Version | Text Only | Print | Product List | Glossary Off
Versions: 1 2 3 4 5 6 7 8 9 10 11 12 13 14 15 16 17 18 19 20 21 22 23 24 25 26 27 28 29 30 31 32 33 34 35 36 37 38 39

000
FTUS43 KGRB 230443 AAA
TAFATW
TAF AMD
KATW 230443Z 2305/2324 24004KT 3SM BR SKC
      TEMPO 2305/2306 1/2SM FG
     FM230600 VRB03KT 1SM BR SKC
      TEMPO 2310/2314 1/2SM FG BKN002
     FM231400 19003KT P6SM SCT250
     FM231500 20008KT P6SM BKN120 BKN250
     FM231900 24007KT P6SM SCT025 BKN100
      TEMPO 2320/2324 5SM -SHRA BR BKN025=

USA.gov is the U.S. government's official web portal to all federal, state and local government web resources and services.